Eurodam — PHOS — position and weather

sailwx.info

Track history (hours):
 
Tides and Currents Weather Stations Pressure Air Temp Water Temp Dewpoint Dewpoint Depression Visibility Wind Speed Wind Dir Waves Ship Positions

Eurodam (Netherlands)

Last reported at 2015-Aug-31 17:24 UTC. Time now 2015-Aug-31 17:40 UTC.
Position N 60°02' E 029°28'.

Length 287 m; draft 8.1 m.

Type: Ship. MMSI: 245206000.

Date/timePositionNaut miles runAvg speedWind from/ knotsBaromVisibWave heightAir tempDewpointWater temp
2015-Aug-31 17:24N 60°02' E 029°28'910.8
2015-Aug-31 16:33N 59°59' E 029°45'10 9.7
2015-Aug-31 15:33N 59°56' E 030°04'4 3.6
2015-Aug-31 14:32N 59°57' E 030°11'0 0.0
2015-Aug-31 13:33N 59°57' E 030°11'0 0.0
2015-Aug-31 12:33N 59°57' E 030°11'0 0.0
2015-Aug-31 11:33N 59°57' E 030°11'0 0.0
2015-Aug-31 10:33N 59°57' E 030°11'0 0.0
2015-Aug-31 09:33N 59°57' E 030°11'0 0.0
2015-Aug-31 08:31N 59°57' E 030°11'0 0.0
2015-Aug-31 07:31N 59°57' E 030°11'0 0.0
2015-Aug-31 06:33N 59°57' E 030°11'0 0.0
2015-Aug-31 05:33N 59°57' E 030°11'0 0.0
2015-Aug-31 04:31N 59°57' E 030°11'0 0.0
2015-Aug-31 03:31N 59°57' E 030°11'0 0.0
2015-Aug-31 02:33N 59°57' E 030°11'0 0.0
2015-Aug-31 01:33N 59°57' E 030°11'0 0.0
2015-Aug-31 00:33N 59°57' E 030°11'0 0.0
2015-Aug-30 23:33N 59°57' E 030°11'0 0.0
2015-Aug-30 22:31N 59°57' E 030°11'0 0.0
2015-Aug-30 21:32N 59°57' E 030°11'0 0.0
2015-Aug-30 20:32N 59°57' E 030°11'0 0.0
2015-Aug-30 19:33N 59°57' E 030°11'0 0.0
2015-Aug-30 18:32N 59°57' E 030°11'0 0.0
2015-Aug-30 17:32N 59°57' E 030°11'0 0.0
2015-Aug-30 16:33N 59°57' E 030°11'0 0.0
2015-Aug-30 15:32N 59°57' E 030°11'0 0.0
2015-Aug-30 14:32N 59°57' E 030°11'0 0.0
2015-Aug-30 13:24N 59°57' E 030°11'0 0.0
2015-Aug-30 12:31N 59°57' E 030°11'0 0.0
2015-Aug-30 11:33N 59°57' E 030°11'0 0.0
2015-Aug-30 10:32N 59°57' E 030°11'0 0.0
2015-Aug-30 09:31N 59°57' E 030°11'0 0.0
2015-Aug-30 08:33N 59°57' E 030°11'0 0.0
2015-Aug-30 07:29N 59°57' E 030°11'0 0.0
2015-Aug-30 06:33N 59°57' E 030°11'0 0.0
2015-Aug-30 05:34N 59°57' E 030°11'0 0.0
2015-Aug-30 04:33N 59°57' E 030°11'0 0.0
2015-Aug-30 03:33N 59°57' E 030°11'7 7.1
2015-Aug-30 02:33N 59°56' E 029°57'1010.4
2015-Aug-30 01:33N 60°00' E 029°38'7512.5
2015-Aug-29 19:33N 59°59' E 027°08'1313.4
2015-Aug-29 18:33N 59°60' E 026°42'1413.8
2015-Aug-29 17:33N 59°56' E 026°15'4214.0
2015-Aug-29 14:33N 59°45' E 024°54'40 3.3
2015-Aug-29 02:20N 59°26' E 023°44'1316.5
2015-Aug-29 01:33N 59°24' E 023°19'34216.3
2015-Aug-28 04:33N 55°37' E 015°22'1717.3
2015-Aug-28 03:34N 55°29' E 014°55'1716.9
2015-Aug-28 02:34N 55°18' E 014°32'1717.3
2015-Aug-28 01:34N 55°04' E 014°14'1716.6
2015-Aug-28 00:34N 54°57' E 013°48'2416.8
2015-Aug-27 23:09N 54°50' E 013°09'1116.8
2015-Aug-27 22:30N 54°47' E 012°51'1616.2
2015-Aug-27 21:32N 54°40' E 012°26'1515.6
2015-Aug-27 20:34N 54°27' E 012°12'1515.5
2015-Aug-27 19:33N 54°25' E 011°46'1716.6
2015-Aug-27 18:33N 54°32' E 011°20'1615.9
2015-Aug-27 17:33N 54°35' E 010°53'1615.8
2015-Aug-27 16:33N 54°32' E 010°26'1211.7
2015-Aug-27 15:33N 54°23' E 010°12'4 3.8
2015-Aug-27 14:31N 54°20' E 010°09'0 0.0
2015-Aug-27 13:31N 54°20' E 010°09'0 0.0
2015-Aug-27 12:31N 54°20' E 010°09'0 0.0
2015-Aug-27 11:31N 54°20' E 010°09'0 0.0
2015-Aug-27 10:31N 54°20' E 010°09'0 0.0
2015-Aug-27 09:31N 54°20' E 010°09'0 0.0
2015-Aug-27 08:31N 54°20' E 010°09'0 0.0
2015-Aug-27 07:31N 54°20' E 010°09'0 0.0
2015-Aug-27 06:31N 54°20' E 010°09'0 0.0
2015-Aug-27 05:31N 54°20' E 010°09'0 0.0
2015-Aug-27 04:31N 54°20' E 010°09'4 4.4
2015-Aug-27 03:33N 54°23' E 010°12'1111.0
2015-Aug-27 02:34N 54°32' E 010°25'1312.6
2015-Aug-27 01:33N 54°38' E 010°44'1413.7
2015-Aug-27 00:33N 54°51' E 010°50'3313.6
2015-Aug-26 22:09N 55°23' E 011°00'812.9
2015-Aug-26 21:32N 55°30' E 010°53'1514.9
2015-Aug-26 20:33N 55°44' E 010°48'4013.4
2015-Aug-26 17:34N 56°08' E 011°46'1616.3
2015-Aug-26 16:34N 56°12' E 012°14'1615.8
2015-Aug-26 15:34N 56°04' E 012°39'1515.1
2015-Aug-26 14:34N 55°49' E 012°44'7 7.3
2015-Aug-26 13:32N 55°43' E 012°37'0 0.0
2015-Aug-26 12:31N 55°43' E 012°37'0 0.0
2015-Aug-26 11:31N 55°43' E 012°37'0 0.0
2015-Aug-26 10:32N 55°43' E 012°37'0 0.0
2015-Aug-26 09:32N 55°43' E 012°37'0 0.0
2015-Aug-26 08:33N 55°43' E 012°37'0 0.0
2015-Aug-26 07:33N 55°43' E 012°37'0 0.0
2015-Aug-26 06:33N 55°43' E 012°37'0 0.0
2015-Aug-26 05:33N 55°43' E 012°37'0 0.4
2015-Aug-26 04:33N 55°43' E 012°38'7 7.1
2015-Aug-26 03:33N 55°49' E 012°44'1010.5
2015-Aug-26 02:34N 55°59' E 012°41'1110.8
2015-Aug-26 01:33N 56°08' E 012°29'1211.6
2015-Aug-26 00:33N 56°15' E 012°12'1010.0
2015-Aug-25 23:33N 56°23' E 012°01'1110.9
2015-Aug-25 22:33N 56°33' E 011°56'1211.5
2015-Aug-25 21:33N 56°45' E 011°51'1312.8
2015-Aug-25 20:33N 56°57' E 011°44'1212.1
2015-Aug-25 19:33N 57°08' E 011°36'1312.6
2015-Aug-25 18:33N 57°20' E 011°28'1111.0
2015-Aug-25 17:33N 57°31' E 011°32'1110.6
2015-Aug-25 16:33N 57°40' E 011°41'4 4.4
2015-Aug-25 15:32N 57°42' E 011°49'0 0.0
2015-Aug-25 14:32N 57°42' E 011°49'0 0.0
2015-Aug-25 13:32N 57°42' E 011°49'0 0.0
2015-Aug-25 12:32N 57°42' E 011°49'0 0.0
2015-Aug-25 11:32N 57°42' E 011°49'0 0.0
2015-Aug-25 10:32N 57°42' E 011°49'0 0.0
2015-Aug-25 09:32N 57°42' E 011°49'0 0.0
2015-Aug-25 08:32N 57°42' E 011°49'0 0.0
2015-Aug-25 07:31N 57°42' E 011°49'0 0.0
2015-Aug-25 06:31N 57°42' E 011°49'0 0.1
2015-Aug-25 05:34N 57°42' E 011°49'7 6.9
2015-Aug-25 04:33N 57°37' E 011°40'1010.2
2015-Aug-25 03:34N 57°42' E 011°23'1211.9
2015-Aug-25 02:34N 57°52' E 011°12'1212.0
2015-Aug-25 01:34N 58°02' E 011°01'1211.8
2015-Aug-25 00:34N 58°13' E 010°50'1212.1
2015-Aug-24 23:34N 58°23' E 010°39'1111.3
2015-Aug-24 22:34N 58°35' E 010°36'1211.9
2015-Aug-24 21:34N 58°46' E 010°35'1312.9
2015-Aug-24 20:34N 58°59' E 010°36'1211.6
2015-Aug-24 19:33N 59°11' E 010°38'1414.1
2015-Aug-24 18:34N 59°25' E 010°33'1413.9
2015-Aug-24 17:34N 59°39' E 010°37'1410.7
2015-Aug-24 16:14N 59°53' E 010°39'0 0.6
2015-Aug-24 15:33N 59°53' E 010°40'3 0.3
2015-Aug-24 05:19N 59°54' E 010°44'16 8.3
2015-Aug-24 03:20N 59°38' E 010°38'912.0
2015-Aug-24 02:33N 59°29' E 010°35'1616.4
2015-Aug-24 01:33N 59°13' E 010°38'1312.7
2015-Aug-24 00:33N 59°00' E 010°34'1010.1
2015-Aug-23 23:33N 58°51' E 010°25'1111.2
2015-Aug-23 22:33N 58°43' E 010°10'1111.2
2015-Aug-23 21:33N 58°35' E 009°55'1111.3
2015-Aug-23 20:33N 58°27' E 009°39'1212.0
2015-Aug-23 19:33N 58°21' E 009°20'1212.1
2015-Aug-23 18:33N 58°14' E 009°01'1312.5
2015-Aug-23 17:33N 58°08' E 008°40'1211.7
2015-Aug-23 16:33N 58°02' E 008°21'9 8.9
2015-Aug-23 15:33N 58°05' E 008°04'4 3.0
2015-Aug-23 14:07N 58°08' E 007°60'5 0.5
2015-Aug-23 04:34N 58°04' E 008°05'1010.0
2015-Aug-23 03:34N 57°55' E 007°59'1110.9
2015-Aug-23 02:34N 57°54' E 007°39'1110.8
2015-Aug-23 01:34N 57°54' E 007°18'3010.1
2015-Aug-22 22:33N 58°03' E 006°24'1111.1
2015-Aug-22 21:34N 58°10' E 006°08'1211.6
2015-Aug-22 20:34N 58°18' E 005°51'1211.8
2015-Aug-22 19:34N 58°26' E 005°34'1211.6
2015-Aug-22 18:33N 58°36' E 005°25'1211.6
2015-Aug-22 17:34N 58°48' E 005°22'1212.3
2015-Aug-22 16:34N 58°58' E 005°33'6 5.5
2015-Aug-22 15:34N 58°59' E 005°44'0 0.1
2015-Aug-22 14:32N 58°58' E 005°44'0 0.0
2015-Aug-22 13:32N 58°58' E 005°44'0 0.0
2015-Aug-22 12:32N 58°58' E 005°44'0 0.0
2015-Aug-22 11:32N 58°58' E 005°44'0 0.0
2015-Aug-22 10:32N 58°58' E 005°44'0 0.0
2015-Aug-22 09:32N 58°58' E 005°44'0 0.3
2015-Aug-22 09:15N 58°58' E 005°44'0 0.1
2015-Aug-22 08:32N 58°58' E 005°44'0 0.0
2015-Aug-22 07:32N 58°58' E 005°44'0 0.0
2015-Aug-22 06:32N 58°58' E 005°44'8 8.4
2015-Aug-22 05:33N 59°04' E 005°33'1616.2
2015-Aug-22 04:33N 59°11' E 005°04'1615.8
2015-Aug-22 03:33N 59°26' E 004°53'11111.6
2015-Aug-21 18:00N 61°06' E 006°30'   220 / 41021.227.0 22.010.813.3
Track history (hours):
 
Tides and Currents Weather Stations Pressure Air Temp Water Temp Dewpoint Dewpoint Depression Visibility Wind Speed Wind Dir Waves Ship Positions

Eurodam (Netherlands)

Last reported at 2015-Aug-31 17:24 UTC. Time now 2015-Aug-31 17:40 UTC.
Position N 60°02' E 029°28'.

Length 287 m; draft 8.1 m.

Type: Ship. MMSI: 245206000.

Date/timePositionNaut miles runAvg speedWind from/ knotsBaromVisibWave heightAir tempDewpointWater temp
2015-Aug-31 17:24N 60°02' E 029°28'910.8
2015-Aug-31 16:33N 59°59' E 029°45'10 9.7
2015-Aug-31 15:33N 59°56' E 030°04'4 3.6
2015-Aug-31 14:32N 59°57' E 030°11'0 0.0
2015-Aug-31 13:33N 59°57' E 030°11'0 0.0
2015-Aug-31 12:33N 59°57' E 030°11'0 0.0
2015-Aug-31 11:33N 59°57' E 030°11'0 0.0
2015-Aug-31 10:33N 59°57' E 030°11'0 0.0
2015-Aug-31 09:33N 59°57' E 030°11'0 0.0
2015-Aug-31 08:31N 59°57' E 030°11'0 0.0
2015-Aug-31 07:31N 59°57' E 030°11'0 0.0
2015-Aug-31 06:33N 59°57' E 030°11'0 0.0
2015-Aug-31 05:33N 59°57' E 030°11'0 0.0
2015-Aug-31 04:31N 59°57' E 030°11'0 0.0
2015-Aug-31 03:31N 59°57' E 030°11'0 0.0
2015-Aug-31 02:33N 59°57' E 030°11'0 0.0
2015-Aug-31 01:33N 59°57' E 030°11'0 0.0
2015-Aug-31 00:33N 59°57' E 030°11'0 0.0
2015-Aug-30 23:33N 59°57' E 030°11'0 0.0
2015-Aug-30 22:31N 59°57' E 030°11'0 0.0
2015-Aug-30 21:32N 59°57' E 030°11'0 0.0
2015-Aug-30 20:32N 59°57' E 030°11'0 0.0
2015-Aug-30 19:33N 59°57' E 030°11'0 0.0
2015-Aug-30 18:32N 59°57' E 030°11'0 0.0
2015-Aug-30 17:32N 59°57' E 030°11'0 0.0
2015-Aug-30 16:33N 59°57' E 030°11'0 0.0
2015-Aug-30 15:32N 59°57' E 030°11'0 0.0
2015-Aug-30 14:32N 59°57' E 030°11'0 0.0
2015-Aug-30 13:24N 59°57' E 030°11'0 0.0
2015-Aug-30 12:31N 59°57' E 030°11'0 0.0
2015-Aug-30 11:33N 59°57' E 030°11'0 0.0
2015-Aug-30 10:32N 59°57' E 030°11'0 0.0
2015-Aug-30 09:31N 59°57' E 030°11'0 0.0
2015-Aug-30 08:33N 59°57' E 030°11'0 0.0
2015-Aug-30 07:29N 59°57' E 030°11'0 0.0
2015-Aug-30 06:33N 59°57' E 030°11'0 0.0
2015-Aug-30 05:34N 59°57' E 030°11'0 0.0
2015-Aug-30 04:33N 59°57' E 030°11'0 0.0
2015-Aug-30 03:33N 59°57' E 030°11'7 7.1
2015-Aug-30 02:33N 59°56' E 029°57'1010.4
2015-Aug-30 01:33N 60°00' E 029°38'7512.5
2015-Aug-29 19:33N 59°59' E 027°08'1313.4
2015-Aug-29 18:33N 59°60' E 026°42'1413.8
2015-Aug-29 17:33N 59°56' E 026°15'4214.0
2015-Aug-29 14:33N 59°45' E 024°54'40 3.3
2015-Aug-29 02:20N 59°26' E 023°44'1316.5
2015-Aug-29 01:33N 59°24' E 023°19'34216.3
2015-Aug-28 04:33N 55°37' E 015°22'1717.3
2015-Aug-28 03:34N 55°29' E 014°55'1716.9
2015-Aug-28 02:34N 55°18' E 014°32'1717.3
2015-Aug-28 01:34N 55°04' E 014°14'1716.6
2015-Aug-28 00:34N 54°57' E 013°48'2416.8
2015-Aug-27 23:09N 54°50' E 013°09'1116.8
2015-Aug-27 22:30N 54°47' E 012°51'1616.2
2015-Aug-27 21:32N 54°40' E 012°26'1515.6
2015-Aug-27 20:34N 54°27' E 012°12'1515.5
2015-Aug-27 19:33N 54°25' E 011°46'1716.6
2015-Aug-27 18:33N 54°32' E 011°20'1615.9
2015-Aug-27 17:33N 54°35' E 010°53'1615.8
2015-Aug-27 16:33N 54°32' E 010°26'1211.7
2015-Aug-27 15:33N 54°23' E 010°12'4 3.8
2015-Aug-27 14:31N 54°20' E 010°09'0 0.0
2015-Aug-27 13:31N 54°20' E 010°09'0 0.0
2015-Aug-27 12:31N 54°20' E 010°09'0 0.0
2015-Aug-27 11:31N 54°20' E 010°09'0 0.0
2015-Aug-27 10:31N 54°20' E 010°09'0 0.0
2015-Aug-27 09:31N 54°20' E 010°09'0 0.0
2015-Aug-27 08:31N 54°20' E 010°09'0 0.0
2015-Aug-27 07:31N 54°20' E 010°09'0 0.0
2015-Aug-27 06:31N 54°20' E 010°09'0 0.0
2015-Aug-27 05:31N 54°20' E 010°09'0 0.0
2015-Aug-27 04:31N 54°20' E 010°09'4 4.4
2015-Aug-27 03:33N 54°23' E 010°12'1111.0
2015-Aug-27 02:34N 54°32' E 010°25'1312.6
2015-Aug-27 01:33N 54°38' E 010°44'1413.7
2015-Aug-27 00:33N 54°51' E 010°50'3313.6
2015-Aug-26 22:09N 55°23' E 011°00'812.9
2015-Aug-26 21:32N 55°30' E 010°53'1514.9
2015-Aug-26 20:33N 55°44' E 010°48'4013.4
2015-Aug-26 17:34N 56°08' E 011°46'1616.3
2015-Aug-26 16:34N 56°12' E 012°14'1615.8
2015-Aug-26 15:34N 56°04' E 012°39'1515.1
2015-Aug-26 14:34N 55°49' E 012°44'7 7.3
2015-Aug-26 13:32N 55°43' E 012°37'0 0.0
2015-Aug-26 12:31N 55°43' E 012°37'0 0.0
2015-Aug-26 11:31N 55°43' E 012°37'0 0.0
2015-Aug-26 10:32N 55°43' E 012°37'0 0.0
2015-Aug-26 09:32N 55°43' E 012°37'0 0.0
2015-Aug-26 08:33N 55°43' E 012°37'0 0.0
2015-Aug-26 07:33N 55°43' E 012°37'0 0.0
2015-Aug-26 06:33N 55°43' E 012°37'0 0.0
2015-Aug-26 05:33N 55°43' E 012°37'0 0.4
2015-Aug-26 04:33N 55°43' E 012°38'7 7.1
2015-Aug-26 03:33N 55°49' E 012°44'1010.5
2015-Aug-26 02:34N 55°59' E 012°41'1110.8
2015-Aug-26 01:33N 56°08' E 012°29'1211.6
2015-Aug-26 00:33N 56°15' E 012°12'1010.0
2015-Aug-25 23:33N 56°23' E 012°01'1110.9
2015-Aug-25 22:33N 56°33' E 011°56'1211.5
2015-Aug-25 21:33N 56°45' E 011°51'1312.8
2015-Aug-25 20:33N 56°57' E 011°44'1212.1
2015-Aug-25 19:33N 57°08' E 011°36'1312.6
2015-Aug-25 18:33N 57°20' E 011°28'1111.0
2015-Aug-25 17:33N 57°31' E 011°32'1110.6
2015-Aug-25 16:33N 57°40' E 011°41'4 4.4
2015-Aug-25 15:32N 57°42' E 011°49'0 0.0
2015-Aug-25 14:32N 57°42' E 011°49'0 0.0
2015-Aug-25 13:32N 57°42' E 011°49'0 0.0
2015-Aug-25 12:32N 57°42' E 011°49'0 0.0
2015-Aug-25 11:32N 57°42' E 011°49'0 0.0
2015-Aug-25 10:32N 57°42' E 011°49'0 0.0
2015-Aug-25 09:32N 57°42' E 011°49'0 0.0
2015-Aug-25 08:32N 57°42' E 011°49'0 0.0
2015-Aug-25 07:31N 57°42' E 011°49'0 0.0
2015-Aug-25 06:31N 57°42' E 011°49'0 0.1
2015-Aug-25 05:34N 57°42' E 011°49'7 6.9
2015-Aug-25 04:33N 57°37' E 011°40'1010.2
2015-Aug-25 03:34N 57°42' E 011°23'1211.9
2015-Aug-25 02:34N 57°52' E 011°12'1212.0
2015-Aug-25 01:34N 58°02' E 011°01'1211.8
2015-Aug-25 00:34N 58°13' E 010°50'1212.1
2015-Aug-24 23:34N 58°23' E 010°39'1111.3
2015-Aug-24 22:34N 58°35' E 010°36'1211.9
2015-Aug-24 21:34N 58°46' E 010°35'1312.9
2015-Aug-24 20:34N 58°59' E 010°36'1211.6
2015-Aug-24 19:33N 59°11' E 010°38'1414.1
2015-Aug-24 18:34N 59°25' E 010°33'1413.9
2015-Aug-24 17:34N 59°39' E 010°37'1410.7
2015-Aug-24 16:14N 59°53' E 010°39'0 0.6
2015-Aug-24 15:33N 59°53' E 010°40'3 0.3
2015-Aug-24 05:19N 59°54' E 010°44'16 8.3
2015-Aug-24 03:20N 59°38' E 010°38'912.0
2015-Aug-24 02:33N 59°29' E 010°35'1616.4
2015-Aug-24 01:33N 59°13' E 010°38'1312.7
2015-Aug-24 00:33N 59°00' E 010°34'1010.1
2015-Aug-23 23:33N 58°51' E 010°25'1111.2
2015-Aug-23 22:33N 58°43' E 010°10'1111.2
2015-Aug-23 21:33N 58°35' E 009°55'1111.3
2015-Aug-23 20:33N 58°27' E 009°39'1212.0
2015-Aug-23 19:33N 58°21' E 009°20'1212.1
2015-Aug-23 18:33N 58°14' E 009°01'1312.5
2015-Aug-23 17:33N 58°08' E 008°40'1211.7
2015-Aug-23 16:33N 58°02' E 008°21'9 8.9
2015-Aug-23 15:33N 58°05' E 008°04'4 3.0
2015-Aug-23 14:07N 58°08' E 007°60'5 0.5
2015-Aug-23 04:34N 58°04' E 008°05'1010.0
2015-Aug-23 03:34N 57°55' E 007°59'1110.9
2015-Aug-23 02:34N 57°54' E 007°39'1110.8
2015-Aug-23 01:34N 57°54' E 007°18'3010.1
2015-Aug-22 22:33N 58°03' E 006°24'1111.1
2015-Aug-22 21:34N 58°10' E 006°08'1211.6
2015-Aug-22 20:34N 58°18' E 005°51'1211.8
2015-Aug-22 19:34N 58°26' E 005°34'1211.6
2015-Aug-22 18:33N 58°36' E 005°25'1211.6
2015-Aug-22 17:34N 58°48' E 005°22'1212.3
2015-Aug-22 16:34N 58°58' E 005°33'6 5.5
2015-Aug-22 15:34N 58°59' E 005°44'0 0.1
2015-Aug-22 14:32N 58°58' E 005°44'0 0.0
2015-Aug-22 13:32N 58°58' E 005°44'0 0.0
2015-Aug-22 12:32N 58°58' E 005°44'0 0.0
2015-Aug-22 11:32N 58°58' E 005°44'0 0.0
2015-Aug-22 10:32N 58°58' E 005°44'0 0.0
2015-Aug-22 09:32N 58°58' E 005°44'0 0.3
2015-Aug-22 09:15N 58°58' E 005°44'0 0.1
2015-Aug-22 08:32N 58°58' E 005°44'0 0.0
2015-Aug-22 07:32N 58°58' E 005°44'0 0.0
2015-Aug-22 06:32N 58°58' E 005°44'8 8.4
2015-Aug-22 05:33N 59°04' E 005°33'1616.2
2015-Aug-22 04:33N 59°11' E 005°04'1615.8
2015-Aug-22 03:33N 59°26' E 004°53'11111.6
2015-Aug-21 18:00N 61°06' E 006°30'   220 / 41021.227.0 22.010.813.3

Dump ship's entire track history